createdAt,value
2022-12-23T00:01:54.525Z,47.83
2022-12-23T00:04:21.911Z,48.40
2022-12-23T00:06:49.368Z,45.67
2022-12-23T00:09:17.269Z,46.33
2022-12-23T00:12:04.909Z,45.75
2022-12-23T00:14:51.281Z,47.50
2022-12-23T00:17:22.586Z,48.35
2022-12-23T00:22:18.561Z,50.72
2022-12-23T00:24:45.909Z,50.95
2022-12-23T00:27:13.249Z,50.58
2022-12-23T00:29:40.659Z,51.83
2022-12-23T00:32:08.653Z,49.53
2022-12-23T00:34:36.607Z,50.00
2022-12-23T00:37:04.308Z,48.83
2022-12-23T00:39:54.742Z,49.67
2022-12-23T00:42:40.898Z,49.83
2022-12-23T00:45:18.131Z,48.78
2022-12-23T00:48:05.319Z,47.90
2022-12-23T00:50:35.730Z,48.22
2022-12-23T00:53:03.696Z,47.38
2022-12-23T00:55:31.734Z,47.63
2022-12-23T00:57:59.264Z,48.42
2022-12-23T01:00:45.357Z,47.22
2022-12-23T01:03:33.142Z,47.83
2022-12-23T01:06:01.937Z,46.53
2022-12-23T01:08:29.297Z,46.83
2022-12-23T01:10:56.786Z,47.05
2022-12-23T01:13:24.233Z,46.35
2022-12-23T01:15:51.637Z,47.47
2022-12-23T01:18:18.971Z,47.80
2022-12-23T01:20:46.287Z,45.95
2022-12-23T01:23:13.675Z,46.97
2022-12-23T01:25:41.050Z,48.90
2022-12-23T01:28:08.484Z,48.78
2022-12-23T01:30:37.871Z,48.45
2022-12-23T01:33:05.389Z,48.72
2022-12-23T01:35:32.737Z,47.85
2022-12-23T01:38:00.172Z,48.83
2022-12-23T01:40:27.467Z,47.70
2022-12-23T01:42:55.445Z,48.97
2022-12-23T01:45:29.800Z,50.40
2022-12-23T01:48:21.402Z,48.75
2022-12-23T01:50:58.551Z,49.45
2022-12-23T01:53:33.113Z,49.42
2022-12-23T01:56:10.134Z,50.25
2022-12-23T01:58:46.979Z,52.38
2022-12-23T02:01:33.274Z,57.17
2022-12-23T02:04:10.186Z,51.60
2022-12-23T02:06:59.599Z,48.35
2022-12-23T02:09:28.965Z,48.17
2022-12-23T02:12:33.563Z,48.33
2022-12-23T02:15:30.711Z,49.00
2022-12-23T02:17:57.956Z,48.47
2022-12-23T02:20:44.375Z,47.95
2022-12-23T02:23:33.533Z,49.65
2022-12-23T02:26:38.041Z,51.28
2022-12-23T02:29:26.170Z,49.92
2022-12-23T02:31:53.878Z,48.90
2022-12-23T02:34:34.635Z,47.40
2022-12-23T02:37:08.110Z,48.83
2022-12-23T02:39:35.465Z,49.42
2022-12-23T02:42:11.580Z,51.15
2022-12-23T02:44:38.870Z,51.30
2022-12-23T02:47:11.611Z,54.08
2022-12-23T02:49:43.345Z,50.17
2022-12-23T02:52:15.365Z,50.30
2022-12-23T02:54:48.594Z,49.65
2022-12-23T02:57:21.691Z,49.88
2022-12-23T02:59:52.029Z,51.78
2022-12-23T03:02:19.681Z,52.67
2022-12-23T03:04:47.177Z,51.80
2022-12-23T03:07:24.095Z,52.25
2022-12-23T03:09:59.474Z,52.80
2022-12-23T03:12:56.981Z,52.83
2022-12-23T03:15:41.703Z,51.42
2022-12-23T03:18:19.378Z,53.00
2022-12-23T03:20:57.566Z,51.38
2022-12-23T03:23:42.050Z,53.05
2022-12-23T03:26:18.905Z,52.42
2022-12-23T03:28:48.919Z,55.58
2022-12-23T03:31:29.084Z,52.42
2022-12-23T03:34:10.386Z,54.08
2022-12-23T03:36:57.553Z,55.65
2022-12-23T03:39:31.068Z,53.08
2022-12-23T03:42:07.460Z,53.03
2022-12-23T03:45:03.637Z,53.63
2022-12-23T03:47:37.422Z,53.92
2022-12-23T03:50:17.383Z,54.13
2022-12-23T03:52:55.506Z,54.00
2022-12-23T03:55:33.017Z,54.42
2022-12-23T03:58:03.377Z,54.65
2022-12-23T04:00:36.185Z,55.58
2022-12-23T04:03:19.828Z,56.00
2022-12-23T04:05:57.952Z,55.00
2022-12-23T04:08:35.297Z,54.42
2022-12-23T04:11:03.451Z,55.45
2022-12-23T04:13:31.284Z,58.05
2022-12-23T04:16:00.312Z,54.80
2022-12-23T04:18:28.923Z,55.92
2022-12-23T04:20:56.247Z,53.80
2022-12-23T04:23:24.291Z,54.58
2022-12-23T04:25:51.579Z,55.13
2022-12-23T04:28:18.883Z,55.67
2022-12-23T04:30:46.258Z,53.08
2022-12-23T04:33:13.574Z,53.55
2022-12-23T04:35:41.301Z,54.35
2022-12-23T04:38:08.629Z,52.38
2022-12-23T04:40:35.960Z,54.92
2022-12-23T04:43:03.395Z,54.72
2022-12-23T04:45:32.509Z,53.35
2022-12-23T04:47:59.845Z,53.17
2022-12-23T04:50:27.213Z,55.08
2022-12-23T04:52:54.730Z,54.17
2022-12-23T04:55:22.559Z,57.05
2022-12-23T04:57:50.235Z,54.80
2022-12-23T05:00:18.016Z,54.35
2022-12-23T05:02:46.009Z,54.70
2022-12-23T05:05:13.468Z,54.10
2022-12-23T05:07:42.999Z,53.80
2022-12-23T05:10:10.682Z,54.42
2022-12-23T05:12:39.208Z,55.95
2022-12-23T05:15:07.786Z,55.35
2022-12-23T05:17:36.166Z,54.80
2022-12-23T05:20:04.054Z,54.30
2022-12-23T05:22:31.427Z,55.85
2022-12-23T05:24:59.287Z,56.35
2022-12-23T05:27:26.597Z,56.22
2022-12-23T05:29:53.916Z,55.55
2022-12-23T05:32:21.350Z,53.25
2022-12-23T05:34:48.641Z,53.58
2022-12-23T05:37:16.484Z,54.20
2022-12-23T05:39:43.804Z,52.63
2022-12-23T05:42:11.195Z,51.97
2022-12-23T05:44:38.520Z,52.97
2022-12-23T05:47:05.948Z,51.47
2022-12-23T05:49:33.389Z,51.10
2022-12-23T05:52:01.252Z,51.00
2022-12-23T05:54:28.575Z,52.03
2022-12-23T05:56:55.971Z,52.95
2022-12-23T05:59:27.650Z,52.33
2022-12-23T06:01:58.734Z,51.70
2022-12-23T06:04:26.325Z,54.35
2022-12-23T06:06:54.125Z,54.83
2022-12-23T06:09:21.403Z,54.38
2022-12-23T06:11:48.866Z,54.80
2022-12-23T06:14:16.262Z,52.53
2022-12-23T06:16:44.237Z,56.95
2022-12-23T06:19:11.596Z,55.35
2022-12-23T06:21:39.017Z,55.35
2022-12-23T06:24:06.864Z,55.30
2022-12-23T06:26:35.949Z,55.20
2022-12-23T06:29:04.160Z,55.58
2022-12-23T06:31:31.550Z,52.60
2022-12-23T06:33:58.877Z,55.08
2022-12-23T06:36:26.145Z,55.25
2022-12-23T06:38:53.503Z,56.08
2022-12-23T06:41:21.894Z,56.83
2022-12-23T06:43:54.157Z,54.20
2022-12-23T06:46:21.867Z,55.80
2022-12-23T06:48:49.302Z,56.70
2022-12-23T06:51:17.102Z,55.10
2022-12-23T06:53:44.785Z,56.20
2022-12-23T06:56:12.253Z,56.08
2022-12-23T06:58:39.609Z,55.70
2022-12-23T07:01:06.966Z,55.25
2022-12-23T07:03:35.141Z,56.30
2022-12-23T07:06:02.882Z,54.92
2022-12-23T07:08:30.163Z,53.60
2022-12-23T07:11:03.375Z,53.78
2022-12-23T07:13:32.523Z,54.00
2022-12-23T07:16:06.030Z,55.35
2022-12-23T07:18:33.584Z,57.10
2022-12-23T07:21:01.601Z,58.63
2022-12-23T07:23:29.531Z,58.33
2022-12-23T07:25:57.458Z,58.80
2022-12-23T07:28:25.390Z,58.80
2022-12-23T07:30:52.696Z,56.72
2022-12-23T07:33:19.978Z,57.30
2022-12-23T07:35:47.289Z,58.42
2022-12-23T07:38:14.719Z,56.45
2022-12-23T07:40:42.479Z,62.30
2022-12-23T07:43:10.665Z,57.60
2022-12-23T07:45:38.148Z,57.92
2022-12-23T07:48:06.133Z,57.97
2022-12-23T07:50:33.477Z,56.13
2022-12-23T07:53:01.413Z,56.20
2022-12-23T07:55:28.693Z,55.80
2022-12-23T07:57:56.046Z,56.78
2022-12-23T08:00:23.564Z,56.45
2022-12-23T08:02:51.432Z,55.00
2022-12-23T08:05:19.361Z,56.35
2022-12-23T08:07:46.694Z,64.18
2022-12-23T08:10:14.079Z,67.32
2022-12-23T08:12:41.456Z,63.30
2022-12-23T08:15:09.374Z,70.97
2022-12-23T08:17:37.196Z,66.45
2022-12-23T08:20:05.392Z,63.20
2022-12-23T08:22:32.798Z,63.15
2022-12-23T08:25:00.540Z,61.08
2022-12-23T08:27:28.038Z,61.38
2022-12-23T08:29:55.965Z,62.45
2022-12-23T08:32:27.080Z,60.83
2022-12-23T08:34:57.404Z,64.40
2022-12-23T08:37:25.423Z,66.75
2022-12-23T08:39:52.986Z,61.17
2022-12-23T08:42:20.653Z,65.68
2022-12-23T08:44:47.958Z,61.25
2022-12-23T08:47:15.417Z,65.38
2022-12-23T08:49:42.725Z,61.28
2022-12-23T08:52:10.594Z,62.00
2022-12-23T08:54:37.874Z,62.60
2022-12-23T08:57:05.222Z,61.65
2022-12-23T08:59:32.651Z,63.67
2022-12-23T09:02:02.036Z,62.92
2022-12-23T09:04:30.083Z,60.08
2022-12-23T09:06:57.429Z,60.47
2022-12-23T09:09:24.958Z,60.33
2022-12-23T09:11:52.288Z,58.20
2022-12-23T09:14:20.190Z,60.83
2022-12-23T09:16:51.115Z,59.35
2022-12-23T09:19:18.828Z,59.97
2022-12-23T09:21:46.577Z,60.80
2022-12-23T09:24:14.346Z,61.95
2022-12-23T09:26:41.716Z,64.30
2022-12-23T09:29:09.274Z,60.78
2022-12-23T09:31:38.066Z,59.40
2022-12-23T09:34:06.151Z,60.55
2022-12-23T09:36:33.697Z,60.92
2022-12-23T09:39:01.451Z,61.30
2022-12-23T09:41:34.873Z,60.90
2022-12-23T09:44:44.345Z,62.75
2022-12-23T09:47:18.186Z,61.85
2022-12-23T09:49:50.881Z,64.45
2022-12-23T09:52:25.320Z,61.50
2022-12-23T09:54:55.457Z,60.30
2022-12-23T09:57:35.293Z,63.47
2022-12-23T10:00:17.007Z,59.40
2022-12-23T10:03:12.373Z,62.25
2022-12-23T10:06:03.647Z,59.15
2022-12-23T10:08:45.924Z,60.35
2022-12-23T10:11:14.906Z,59.72
2022-12-23T10:13:46.291Z,63.33
2022-12-23T10:16:20.373Z,62.33
2022-12-23T10:18:53.899Z,62.42
2022-12-23T10:21:24.228Z,65.70
2022-12-23T10:24:03.744Z,65.20
2022-12-23T10:26:39.237Z,66.43
2022-12-23T10:29:16.944Z,68.82
2022-12-23T10:32:01.371Z,69.43
2022-12-23T10:34:46.381Z,69.45
2022-12-23T10:37:22.705Z,69.90
2022-12-23T10:40:29.128Z,69.32
2022-12-23T10:43:34.920Z,69.78
2022-12-23T10:46:15.373Z,67.85
2022-12-23T10:48:55.246Z,70.00
2022-12-23T10:51:29.780Z,71.10
2022-12-23T10:54:03.761Z,67.43
2022-12-23T10:56:32.174Z,68.18
2022-12-23T10:59:00.720Z,69.47
2022-12-23T11:01:32.316Z,66.75
2022-12-23T11:04:08.436Z,68.70
2022-12-23T11:06:42.480Z,66.22
2022-12-23T11:09:24.259Z,64.60
2022-12-23T11:11:56.378Z,66.10
2022-12-23T11:14:43.119Z,66.57
2022-12-23T11:17:32.025Z,65.85
2022-12-23T11:20:15.442Z,67.50
2022-12-23T11:22:47.456Z,65.93
2022-12-23T11:25:39.131Z,65.22
2022-12-23T11:28:19.515Z,66.45
2022-12-23T11:30:56.753Z,66.13
2022-12-23T11:33:28.390Z,66.95
2022-12-23T11:36:04.958Z,68.05
2022-12-23T11:38:33.897Z,67.65
2022-12-23T11:41:01.697Z,68.60
2022-12-23T11:43:30.332Z,69.82
2022-12-23T11:46:24.263Z,64.18
2022-12-23T11:49:24.075Z,66.75
2022-12-23T11:52:05.295Z,60.47
2022-12-23T11:54:33.987Z,62.70
2022-12-23T11:57:07.961Z,62.17
2022-12-23T11:59:48.785Z,58.30
2022-12-23T12:02:22.435Z,58.63
2022-12-23T12:05:04.867Z,61.47
2022-12-23T12:07:33.628Z,60.33
2022-12-23T12:10:02.390Z,64.13
2022-12-23T12:12:30.561Z,63.65
2022-12-23T12:14:59.910Z,60.97
2022-12-23T12:17:42.220Z,57.70
2022-12-23T12:20:18.609Z,58.92
2022-12-23T12:23:01.585Z,58.60
2022-12-23T12:25:42.528Z,57.85
2022-12-23T12:28:18.612Z,60.60
2022-12-23T12:31:45.153Z,59.97
2022-12-23T12:34:27.272Z,59.80
2022-12-23T12:37:08.779Z,63.42
2022-12-23T12:39:43.129Z,59.15
2022-12-23T12:42:29.398Z,58.35
2022-12-23T12:45:10.260Z,61.67
2022-12-23T12:47:58.473Z,58.40
2022-12-23T12:50:34.629Z,57.92
2022-12-23T12:53:12.426Z,58.65
2022-12-23T12:55:49.022Z,58.63
2022-12-23T12:58:21.093Z,56.58
2022-12-23T13:00:57.185Z,57.20
2022-12-23T13:04:08.856Z,58.90
2022-12-23T13:07:06.286Z,59.13
2022-12-23T13:09:36.262Z,58.33
2022-12-23T13:12:38.165Z,58.78
2022-12-23T13:15:29.649Z,57.65
2022-12-23T13:18:16.437Z,59.33
2022-12-23T13:21:12.662Z,57.40
2022-12-23T13:23:52.081Z,59.42
2022-12-23T13:26:43.032Z,61.78
2022-12-23T13:29:22.664Z,64.20
2022-12-23T13:32:01.810Z,57.72
2022-12-23T13:34:54.178Z,58.22
2022-12-23T13:37:36.277Z,57.72
2022-12-23T13:40:35.023Z,62.97
2022-12-23T13:43:11.434Z,58.42
2022-12-23T13:45:40.815Z,58.28
2022-12-23T13:48:53.582Z,56.60
2022-12-23T13:51:37.801Z,58.33
2022-12-23T13:54:20.982Z,59.00
2022-12-23T13:57:25.410Z,56.83
2022-12-23T14:00:06.185Z,54.72
2022-12-23T14:02:54.325Z,56.60
2022-12-23T14:08:20.112Z,55.60
2022-12-23T14:11:11.384Z,58.95
2022-12-23T14:13:51.424Z,58.00
2022-12-23T14:16:42.365Z,63.67
2022-12-23T14:19:19.239Z,66.50
2022-12-23T14:21:54.277Z,65.70
2022-12-23T14:24:43.031Z,60.00
2022-12-23T14:27:35.705Z,58.78
2022-12-23T14:30:21.914Z,60.55
2022-12-23T14:32:57.394Z,56.90
2022-12-23T14:35:27.657Z,59.53
2022-12-23T14:38:16.851Z,56.05
2022-12-23T14:41:19.008Z,53.13
2022-12-23T14:43:46.310Z,55.10
2022-12-23T14:46:35.509Z,55.97
2022-12-23T14:49:37.448Z,54.80
2022-12-23T14:51:51.044Z,57.85
2022-12-23T14:54:38.296Z,57.63
2022-12-23T14:57:16.257Z,58.35
2022-12-23T14:59:52.309Z,56.95
2022-12-23T15:02:54.002Z,52.97
2022-12-23T15:05:24.052Z,53.45
2022-12-23T15:07:55.969Z,53.70
2022-12-23T15:12:57.527Z,54.35
2022-12-23T15:15:27.266Z,57.05
2022-12-23T15:18:03.603Z,60.28
2022-12-23T15:20:31.376Z,56.15
2022-12-23T15:23:11.862Z,59.88
2022-12-23T15:25:43.586Z,59.90
2022-12-23T15:30:51.753Z,63.97
2022-12-23T15:34:01.486Z,68.10
2022-12-23T15:36:15.232Z,64.55
2022-12-23T15:38:43.082Z,67.13
2022-12-23T15:41:16.091Z,62.15
2022-12-23T15:43:43.719Z,61.22
2022-12-23T15:46:29.130Z,83.70
2022-12-23T15:48:58.198Z,87.07
2022-12-23T15:54:26.989Z,76.82
2022-12-23T15:56:57.231Z,73.57
2022-12-23T15:59:36.629Z,73.05
2022-12-23T16:05:31.140Z,70.93
2022-12-23T16:08:28.224Z,68.15
2022-12-23T16:10:56.830Z,74.75
2022-12-23T16:13:25.700Z,74.97
2022-12-23T16:15:53.471Z,81.07
2022-12-23T16:18:23.995Z,85.38
2022-12-23T16:21:01.869Z,80.75
2022-12-23T16:23:30.810Z,73.18
2022-12-23T16:26:00.336Z,64.88
2022-12-23T16:28:41.009Z,63.65
2022-12-23T16:31:11.291Z,64.78
2022-12-23T16:33:47.708Z,65.53
2022-12-23T16:36:19.081Z,63.75
2022-12-23T16:38:49.031Z,69.68
2022-12-23T16:41:17.033Z,71.18
2022-12-23T16:43:51.495Z,72.00
2022-12-23T16:46:22.196Z,84.78
2022-12-23T16:48:57.516Z,85.97
2022-12-23T16:51:27.165Z,80.43
2022-12-23T16:53:57.463Z,88.72
2022-12-23T16:56:28.776Z,84.40
2022-12-23T16:58:56.997Z,88.70
2022-12-23T17:01:29.006Z,86.15
2022-12-23T17:03:56.615Z,81.00
2022-12-23T17:06:24.467Z,81.72
2022-12-23T17:08:53.191Z,75.25
2022-12-23T17:11:29.213Z,80.00
2022-12-23T17:14:03.890Z,86.20
2022-12-23T17:16:33.779Z,87.40
2022-12-23T17:19:01.882Z,87.13
2022-12-23T17:21:36.671Z,79.90
2022-12-23T17:24:04.502Z,86.13
2022-12-23T17:26:32.016Z,80.78
2022-12-23T17:28:59.308Z,77.25
2022-12-23T17:31:27.487Z,81.90
2022-12-23T17:33:55.282Z,70.68
2022-12-23T17:36:23.084Z,74.22
2022-12-23T17:38:50.444Z,78.70
2022-12-23T17:41:35.893Z,69.07
2022-12-23T17:44:04.605Z,69.32
2022-12-23T17:46:32.989Z,70.72
2022-12-23T17:49:00.819Z,71.63
2022-12-23T17:51:28.124Z,69.35
2022-12-23T17:53:58.045Z,71.80
2022-12-23T17:56:28.720Z,108.32
2022-12-23T17:58:56.238Z,76.07
2022-12-23T18:01:29.911Z,70.78
2022-12-23T18:04:00.254Z,70.93
2022-12-23T18:06:29.148Z,65.45
2022-12-23T18:08:57.743Z,64.35
2022-12-23T18:11:36.725Z,66.40
2022-12-23T18:14:04.336Z,65.90
2022-12-23T18:16:31.830Z,78.38
2022-12-23T18:19:00.045Z,64.88
2022-12-23T18:21:28.652Z,70.95
2022-12-23T18:23:58.732Z,67.97
2022-12-23T18:26:26.329Z,69.90
2022-12-23T18:28:54.257Z,68.68
2022-12-23T18:31:24.284Z,69.55
2022-12-23T18:33:52.827Z,67.85
2022-12-23T18:36:25.143Z,67.28
2022-12-23T18:38:53.316Z,72.53
2022-12-23T18:41:22.117Z,69.25
2022-12-23T18:43:51.064Z,66.85
2022-12-23T18:46:20.167Z,69.10
2022-12-23T18:48:48.166Z,71.05
2022-12-23T18:51:17.412Z,71.03
2022-12-23T18:53:45.715Z,80.03
2022-12-23T18:56:14.938Z,85.55
2022-12-23T18:58:42.919Z,71.70
2022-12-23T19:01:12.347Z,71.40
2022-12-23T19:03:40.545Z,77.13
2022-12-23T19:06:09.982Z,73.78
2022-12-23T19:08:38.720Z,67.53
2022-12-23T19:11:19.136Z,68.38
2022-12-23T19:13:47.147Z,67.82
2022-12-23T19:16:20.611Z,67.03
2022-12-23T19:18:48.991Z,70.68
2022-12-23T19:21:17.862Z,66.22
2022-12-23T19:23:45.209Z,64.82
2022-12-23T19:26:14.834Z,67.50
2022-12-23T19:28:42.563Z,62.53
2022-12-23T19:31:14.736Z,62.72
2022-12-23T19:33:44.000Z,62.58
2022-12-23T19:36:17.466Z,62.53
2022-12-23T19:38:45.277Z,64.45
2022-12-23T19:41:13.216Z,63.30
2022-12-23T19:43:43.986Z,63.03
2022-12-23T19:46:13.052Z,64.35
2022-12-23T19:48:40.624Z,65.88
2022-12-23T19:51:11.426Z,67.72
2022-12-23T19:53:40.648Z,65.22
2022-12-23T19:56:17.209Z,64.53
2022-12-23T19:58:44.696Z,70.88
2022-12-23T20:01:16.130Z,71.00
2022-12-23T20:03:45.432Z,66.53
2022-12-23T20:06:20.095Z,74.68
2022-12-23T20:08:48.871Z,74.38
2022-12-23T20:11:19.580Z,67.72
2022-12-23T20:13:52.329Z,74.47
2022-12-23T20:16:20.936Z,74.80
2022-12-23T20:18:49.317Z,70.20
2022-12-23T20:21:16.789Z,73.03
2022-12-23T20:23:44.279Z,70.82
2022-12-23T20:26:16.137Z,76.18
2022-12-23T20:31:20.689Z,71.75
2022-12-23T20:33:49.384Z,71.38
2022-12-23T20:36:22.065Z,70.13
2022-12-23T20:38:50.730Z,71.72
2022-12-23T20:41:21.011Z,72.50
2022-12-23T20:44:02.750Z,68.85
2022-12-23T20:46:36.099Z,72.10
2022-12-23T20:49:04.530Z,66.75
2022-12-23T20:51:31.838Z,66.07
2022-12-23T20:54:00.030Z,65.97
2022-12-23T20:56:29.328Z,67.45
2022-12-23T20:58:59.015Z,69.10
2022-12-23T21:01:27.201Z,70.25
2022-12-23T21:03:56.467Z,70.57
2022-12-23T21:06:24.822Z,67.22
2022-12-23T21:08:55.533Z,75.85
2022-12-23T21:11:23.451Z,73.32
2022-12-23T21:13:51.881Z,73.15
2022-12-23T21:16:20.514Z,71.40
2022-12-23T21:18:52.620Z,68.57
2022-12-23T21:21:23.594Z,71.75
2022-12-23T21:23:50.986Z,70.67
2022-12-23T21:26:21.048Z,69.40
2022-12-23T21:28:49.340Z,69.05
2022-12-23T21:31:20.016Z,69.05
2022-12-23T21:33:49.073Z,71.00
2022-12-23T21:36:20.446Z,69.05
2022-12-23T21:38:49.404Z,66.68
2022-12-23T21:41:23.143Z,69.03
2022-12-23T21:43:51.846Z,65.38
2022-12-23T21:46:22.263Z,65.05
2022-12-23T21:48:50.073Z,69.18
2022-12-23T21:51:23.495Z,67.70
2022-12-23T21:53:52.723Z,71.60
2022-12-23T21:56:22.280Z,76.80
2022-12-23T21:58:50.053Z,73.70
2022-12-23T22:01:20.725Z,76.68
2022-12-23T22:03:49.561Z,69.78
2022-12-23T22:06:20.985Z,71.20
2022-12-23T22:08:49.320Z,70.38
2022-12-23T22:11:28.009Z,71.20
2022-12-23T22:13:57.817Z,70.97
2022-12-23T22:16:27.251Z,72.95
2022-12-23T22:18:55.986Z,71.97
2022-12-23T22:21:25.449Z,69.78
2022-12-23T22:23:54.317Z,68.60
2022-12-23T22:26:26.166Z,68.40
2022-12-23T22:28:58.757Z,69.30
2022-12-23T22:31:33.160Z,67.07
2022-12-23T22:34:01.397Z,70.22
2022-12-23T22:36:30.363Z,68.63
2022-12-23T22:39:01.124Z,68.80
2022-12-23T22:41:30.078Z,68.72
2022-12-23T22:43:58.590Z,67.75
2022-12-23T22:46:26.889Z,66.88
2022-12-23T22:48:54.523Z,71.10
2022-12-23T22:51:28.680Z,69.90
2022-12-23T22:53:57.136Z,70.13
2022-12-23T22:56:25.666Z,74.93
2022-12-23T22:58:54.219Z,73.05
2022-12-23T23:01:30.806Z,71.85
2022-12-23T23:04:00.474Z,73.80
2022-12-23T23:06:34.692Z,72.70
2022-12-23T23:09:02.385Z,79.53
2022-12-23T23:11:29.711Z,74.70
2022-12-23T23:13:57.047Z,78.07
2022-12-23T23:16:25.299Z,73.20
2022-12-23T23:18:53.521Z,74.13
2022-12-23T23:21:21.941Z,74.03
2022-12-23T23:23:49.952Z,71.93
2022-12-23T23:26:18.158Z,71.80
2022-12-23T23:28:45.794Z,74.10
2022-12-23T23:34:01.302Z,71.50
2022-12-23T23:36:29.167Z,71.43
2022-12-23T23:38:56.576Z,67.85
2022-12-23T23:41:24.374Z,69.82
2022-12-23T23:45:00.095Z,69.07
2022-12-23T23:47:51.496Z,67.60
2022-12-23T23:50:19.004Z,66.90
2022-12-23T23:52:46.850Z,65.63
2022-12-23T23:55:14.141Z,65.53
2022-12-23T23:57:41.547Z,67.88
